createdAt,value
2023-01-23T00:01:02.222Z,98771.00
2023-01-23T00:03:28.874Z,98767.88
2023-01-23T00:06:07.621Z,98770.25
2023-01-23T00:08:35.693Z,98780.50
2023-01-23T00:11:07.424Z,98782.41
2023-01-23T00:13:35.536Z,98784.69
2023-01-23T00:16:09.882Z,98777.16
2023-01-23T00:18:36.537Z,98782.84
2023-01-23T00:21:08.471Z,98778.94
2023-01-23T00:23:35.644Z,98784.47
2023-01-23T00:26:07.796Z,98775.38
2023-01-23T00:28:35.410Z,98770.19
2023-01-23T00:31:06.953Z,98777.19
2023-01-23T00:33:33.860Z,98780.75
2023-01-23T00:36:00.862Z,98779.28
2023-01-23T00:38:27.806Z,98781.56
2023-01-23T00:40:56.292Z,98779.19
2023-01-23T00:43:24.169Z,98779.78
2023-01-23T00:45:51.365Z,98784.44
2023-01-23T00:48:17.976Z,98780.38
2023-01-23T00:50:44.982Z,98790.53
2023-01-23T00:53:13.007Z,98795.88
2023-01-23T00:55:40.260Z,98795.25
2023-01-23T00:58:08.303Z,98792.56
2023-01-23T01:00:36.065Z,98800.03
2023-01-23T01:03:03.457Z,98793.16
2023-01-23T01:05:30.330Z,98790.28
2023-01-23T01:07:57.098Z,98792.00
2023-01-23T01:10:25.598Z,98781.25
2023-01-23T01:12:52.320Z,98791.75
2023-01-23T01:15:18.990Z,98781.16
2023-01-23T01:17:45.620Z,98786.06
2023-01-23T01:20:12.868Z,98779.63
2023-01-23T01:22:39.527Z,98776.94
2023-01-23T01:25:06.776Z,98783.16
2023-01-23T01:27:33.432Z,98788.25
2023-01-23T01:30:00.055Z,98791.41
2023-01-23T01:32:26.691Z,98793.06
2023-01-23T01:34:53.448Z,98797.38
2023-01-23T01:37:22.554Z,98795.25
2023-01-23T01:39:49.348Z,98795.41
2023-01-23T01:42:16.020Z,98798.41
2023-01-23T01:45:28.722Z,98791.22
2023-01-23T01:47:55.491Z,98796.47
2023-01-23T01:50:22.515Z,98796.63
2023-01-23T01:52:49.262Z,98789.72
2023-01-23T01:55:15.996Z,98788.75
2023-01-23T01:57:45.348Z,98788.75
2023-01-23T02:00:16.206Z,98783.59
2023-01-23T02:02:56.088Z,98783.69
2023-01-23T02:05:26.416Z,98790.53
2023-01-23T02:08:16.050Z,98793.03
2023-01-23T02:10:44.174Z,98787.94
2023-01-23T02:13:22.680Z,98789.84
2023-01-23T02:15:50.099Z,98782.38
2023-01-23T02:18:17.152Z,98786.72
2023-01-23T02:20:44.646Z,98787.09
2023-01-23T02:23:31.533Z,98779.69
2023-01-23T02:26:05.270Z,98776.38
2023-01-23T02:28:49.893Z,98777.13
2023-01-23T02:31:16.603Z,98782.66
2023-01-23T02:33:49.185Z,98775.63
2023-01-23T02:36:18.163Z,98785.63
2023-01-23T02:39:07.993Z,98777.00
2023-01-23T02:41:41.201Z,98790.69
2023-01-23T02:44:16.350Z,98779.06
2023-01-23T02:46:43.007Z,98776.94
2023-01-23T02:49:09.788Z,98773.25
2023-01-23T02:51:36.687Z,98765.31
2023-01-23T02:54:03.915Z,98757.13
2023-01-23T02:56:30.668Z,98759.53
2023-01-23T02:59:15.596Z,98757.75
2023-01-23T03:01:42.247Z,98752.78
2023-01-23T03:04:08.917Z,98756.78
2023-01-23T03:06:37.614Z,98757.22
2023-01-23T03:09:10.323Z,98759.09
2023-01-23T03:11:39.539Z,98757.31
2023-01-23T03:14:09.703Z,98751.78
2023-01-23T03:16:38.270Z,98740.16
2023-01-23T03:19:09.179Z,98742.28
2023-01-23T03:21:40.378Z,98739.59
2023-01-23T03:24:12.657Z,98740.63
2023-01-23T03:26:40.940Z,98739.56
2023-01-23T03:29:27.227Z,98737.47
2023-01-23T03:31:53.874Z,98745.28
2023-01-23T03:34:22.192Z,98730.38
2023-01-23T03:36:48.861Z,98742.16
2023-01-23T03:39:34.054Z,98752.34
2023-01-23T03:42:00.759Z,98751.88
2023-01-23T03:44:27.424Z,98746.06
2023-01-23T03:46:54.033Z,98746.16
2023-01-23T03:49:20.766Z,98750.63
2023-01-23T03:51:47.517Z,98743.88
2023-01-23T03:54:14.825Z,98752.06
2023-01-23T03:56:42.822Z,98759.84
2023-01-23T03:59:10.091Z,98757.38
2023-01-23T04:01:37.662Z,98749.59
2023-01-23T04:04:04.661Z,98743.88
2023-01-23T04:06:31.316Z,98749.72
2023-01-23T04:08:58.300Z,98745.47
2023-01-23T04:11:26.814Z,98758.94
2023-01-23T04:13:54.713Z,98755.06
2023-01-23T04:16:25.464Z,98758.16
2023-01-23T04:18:52.435Z,98757.56
2023-01-23T04:21:19.088Z,98755.34
2023-01-23T04:23:46.177Z,98761.31
2023-01-23T04:26:13.359Z,98764.56
2023-01-23T04:28:40.230Z,98768.91
2023-01-23T04:31:09.321Z,98768.44
2023-01-23T04:33:36.196Z,98773.97
2023-01-23T04:36:05.243Z,98768.66
2023-01-23T04:38:33.517Z,98771.28
2023-01-23T04:41:00.310Z,98771.16
2023-01-23T04:43:27.132Z,98762.53
2023-01-23T04:45:56.818Z,98754.22
2023-01-23T04:48:24.423Z,98751.97
2023-01-23T04:50:51.391Z,98748.19
2023-01-23T04:53:18.155Z,98751.63
2023-01-23T04:55:47.387Z,98758.31
2023-01-23T04:58:14.095Z,98774.44
2023-01-23T05:00:40.774Z,98773.09
2023-01-23T05:03:07.398Z,98785.25
2023-01-23T05:05:34.235Z,98788.53
2023-01-23T05:08:00.845Z,98790.75
2023-01-23T05:10:27.579Z,98804.03
2023-01-23T05:12:54.213Z,98807.94
2023-01-23T05:15:21.300Z,98800.72
2023-01-23T05:17:48.936Z,98801.91
2023-01-23T05:20:15.819Z,98801.50
2023-01-23T05:22:52.262Z,98800.78
2023-01-23T05:25:25.466Z,98790.34
2023-01-23T05:27:52.905Z,98793.47
2023-01-23T05:30:22.062Z,98791.16
2023-01-23T05:32:49.372Z,98798.94
2023-01-23T05:35:16.889Z,98792.50
2023-01-23T05:37:43.536Z,98798.16
2023-01-23T05:40:13.293Z,98809.91
2023-01-23T05:42:39.964Z,98812.88
2023-01-23T05:45:07.314Z,98804.94
2023-01-23T05:47:34.181Z,98810.97
2023-01-23T05:50:01.260Z,98815.75
2023-01-23T05:52:27.995Z,98820.66
2023-01-23T05:54:54.696Z,98823.53
2023-01-23T05:57:21.386Z,98817.41
2023-01-23T05:59:48.073Z,98820.84
2023-01-23T06:02:14.882Z,98826.66
2023-01-23T06:04:41.752Z,98823.06
2023-01-23T06:07:14.398Z,98821.88
2023-01-23T06:09:41.210Z,98818.59
2023-01-23T06:12:08.889Z,98818.31
2023-01-23T06:14:35.812Z,98826.50
2023-01-23T06:17:02.844Z,98825.91
2023-01-23T06:19:29.583Z,98825.03
2023-01-23T06:21:56.428Z,98831.91
2023-01-23T06:24:23.225Z,98830.09
2023-01-23T06:26:50.533Z,98838.16
2023-01-23T06:29:17.215Z,98842.44
2023-01-23T06:31:43.902Z,98841.00
2023-01-23T06:34:10.844Z,98841.00
2023-01-23T06:36:37.547Z,98843.50
2023-01-23T06:39:04.141Z,98843.97
2023-01-23T06:41:30.807Z,98846.78
2023-01-23T06:43:57.623Z,98842.63
2023-01-23T06:46:24.335Z,98841.78
2023-01-23T06:48:52.562Z,98851.88
2023-01-23T06:51:19.228Z,98863.38
2023-01-23T06:53:45.912Z,98871.56
2023-01-23T06:56:12.620Z,98873.53
2023-01-23T06:58:39.221Z,98870.94
2023-01-23T07:01:15.872Z,98872.63
2023-01-23T07:03:44.840Z,98881.56
2023-01-23T07:06:13.051Z,98878.59
2023-01-23T07:08:40.054Z,98870.69
2023-01-23T07:11:07.290Z,98880.25
2023-01-23T07:13:34.047Z,98876.06
2023-01-23T07:16:01.637Z,98876.06
2023-01-23T07:18:30.272Z,98874.25
2023-01-23T07:20:57.000Z,98871.41
2023-01-23T07:23:23.840Z,98868.84
2023-01-23T07:25:50.730Z,98865.41
2023-01-23T07:28:17.362Z,98866.47
2023-01-23T07:30:44.093Z,98862.56
2023-01-23T07:33:12.270Z,98864.09
2023-01-23T07:35:40.099Z,98856.88
2023-01-23T07:38:06.659Z,98856.47
2023-01-23T07:40:33.276Z,98872.09
2023-01-23T07:42:59.881Z,98864.38
2023-01-23T07:45:26.568Z,98864.66
2023-01-23T07:47:53.119Z,98855.16
2023-01-23T07:50:19.940Z,98864.69
2023-01-23T07:52:46.759Z,98853.19
2023-01-23T07:55:13.428Z,98865.81
2023-01-23T07:57:40.024Z,98871.03
2023-01-23T08:00:07.809Z,98862.25
2023-01-23T08:02:34.371Z,98866.25
2023-01-23T08:05:00.928Z,98862.75
2023-01-23T08:07:27.565Z,98866.72
2023-01-23T08:09:54.178Z,98862.88
2023-01-23T08:12:20.823Z,98858.34
2023-01-23T08:14:48.100Z,98859.06
2023-01-23T08:17:14.787Z,98863.38
2023-01-23T08:19:41.352Z,98858.75
2023-01-23T08:22:07.932Z,98860.34
2023-01-23T08:24:34.548Z,98862.28
2023-01-23T08:27:01.292Z,98861.03
2023-01-23T08:29:27.924Z,98852.19
2023-01-23T08:31:55.122Z,98855.66
2023-01-23T08:34:22.077Z,98851.34
2023-01-23T08:36:48.708Z,98865.31
2023-01-23T08:39:17.085Z,98864.63
2023-01-23T08:41:43.628Z,98877.03
2023-01-23T08:44:10.242Z,98879.06
2023-01-23T08:46:36.821Z,98873.84
2023-01-23T08:49:04.918Z,98878.75
2023-01-23T08:51:31.555Z,98876.66
2023-01-23T08:53:58.181Z,98875.22
2023-01-23T08:56:25.227Z,98873.47
2023-01-23T08:58:51.951Z,98882.72
2023-01-23T09:01:24.344Z,98875.63
2023-01-23T09:03:50.861Z,98870.91
2023-01-23T09:06:19.311Z,98882.34
2023-01-23T09:08:46.218Z,98884.22
2023-01-23T09:11:14.060Z,98878.06
2023-01-23T09:13:41.175Z,98879.69
2023-01-23T09:16:08.956Z,98881.41
2023-01-23T09:18:36.319Z,98889.09
2023-01-23T09:21:11.931Z,98890.97
2023-01-23T09:23:38.827Z,98905.91
2023-01-23T09:26:11.196Z,98901.38
2023-01-23T09:28:40.102Z,98897.91
2023-01-23T09:31:08.748Z,98900.28
2023-01-23T09:33:35.987Z,98903.72
2023-01-23T09:36:03.790Z,98895.91
2023-01-23T09:38:30.713Z,98894.66
2023-01-23T09:40:58.982Z,98889.88
2023-01-23T09:43:35.739Z,98892.00
2023-01-23T09:46:31.593Z,98894.91
2023-01-23T09:49:37.320Z,98886.09
2023-01-23T09:52:11.187Z,98882.03
2023-01-23T09:54:50.367Z,98885.56
2023-01-23T09:57:42.718Z,98885.94
2023-01-23T10:00:36.509Z,98888.97
2023-01-23T10:03:11.343Z,98888.25
2023-01-23T10:06:08.154Z,98887.34
2023-01-23T10:09:16.203Z,98885.69
2023-01-23T10:11:59.288Z,98889.41
2023-01-23T10:14:58.329Z,98883.66
2023-01-23T10:17:41.565Z,98887.69
2023-01-23T10:20:40.399Z,98887.03
2023-01-23T10:24:01.897Z,98896.19
2023-01-23T10:26:34.542Z,98882.19
2023-01-23T10:29:15.674Z,98881.16
2023-01-23T10:32:04.568Z,98884.41
2023-01-23T10:34:55.601Z,98869.84
2023-01-23T11:02:44.199Z,98851.41
2023-01-23T11:05:52.508Z,98852.16
2023-01-23T11:08:36.229Z,98843.31
2023-01-23T11:14:10.737Z,98842.31
2023-01-23T11:16:38.159Z,98844.69
2023-01-23T11:19:16.177Z,98838.13
2023-01-23T11:21:58.534Z,98835.06
2023-01-23T11:24:45.374Z,98837.63
2023-01-23T11:27:31.085Z,98841.81
2023-01-23T11:30:27.010Z,98822.88
2023-01-23T11:33:12.735Z,98822.91
2023-01-23T11:36:03.074Z,98813.97
2023-01-23T11:38:42.115Z,98819.44
2023-01-23T11:41:15.196Z,98821.00
2023-01-23T11:43:42.293Z,98811.25
2023-01-23T11:46:56.933Z,98818.88
2023-01-23T11:50:11.727Z,98805.22
2023-01-23T11:53:05.060Z,98810.97
2023-01-23T11:55:45.885Z,98809.84
2023-01-23T11:59:14.498Z,98810.63
2023-01-23T12:02:39.414Z,98804.59
2023-01-23T12:11:20.499Z,98810.78
2023-01-23T12:14:03.342Z,98805.97
2023-01-23T12:16:56.728Z,98810.59
2023-01-23T12:38:06.812Z,98788.22
2023-01-23T12:41:00.113Z,98789.34
2023-01-23T12:43:59.565Z,98795.78
2023-01-23T12:46:34.438Z,98799.19
2023-01-23T12:52:23.822Z,98790.66
2023-01-23T13:10:05.853Z,98784.72
2023-01-23T13:12:33.084Z,98778.28
2023-01-23T13:15:38.776Z,98780.72
2023-01-23T13:18:06.267Z,98784.06
2023-01-23T13:21:14.793Z,98772.72
2023-01-23T13:23:41.517Z,98783.31
2023-01-23T13:26:28.918Z,98783.41
2023-01-23T13:29:02.215Z,98789.09
2023-01-23T13:31:40.110Z,98784.84
2023-01-23T13:34:37.124Z,98786.13
2023-01-23T13:37:50.924Z,98788.06
2023-01-23T13:40:21.223Z,98776.38
2023-01-23T13:42:47.952Z,98771.75
2023-01-23T13:45:27.514Z,98783.31
2023-01-23T14:22:12.228Z,98788.88
2023-01-23T14:24:55.029Z,98782.38
2023-01-23T14:27:52.128Z,98780.44
2023-01-23T14:30:28.200Z,98779.25
2023-01-23T14:32:55.510Z,98781.47
2023-01-23T14:35:43.013Z,98775.34
2023-01-23T14:38:16.174Z,98775.41
2023-01-23T14:40:51.043Z,98778.09
2023-01-23T14:43:21.915Z,98780.19
2023-01-23T14:45:54.045Z,98789.19
2023-01-23T14:48:21.787Z,98776.16
2023-01-23T14:50:48.433Z,98790.66
2023-01-23T14:53:16.903Z,98782.50
2023-01-23T14:55:47.090Z,98783.69
2023-01-23T14:58:22.647Z,98784.47
2023-01-23T15:00:50.311Z,98785.75
2023-01-23T15:03:37.206Z,98786.88
2023-01-23T15:06:09.975Z,98783.13
2023-01-23T15:08:37.604Z,98775.72
2023-01-23T15:11:06.557Z,98783.25
2023-01-23T15:13:48.618Z,98774.69
2023-01-23T15:16:29.041Z,98786.50
2023-01-23T15:19:02.851Z,98783.63
2023-01-23T15:21:33.189Z,98777.94
2023-01-23T15:24:20.040Z,98787.22
2023-01-23T15:26:58.768Z,98787.78
2023-01-23T15:29:27.125Z,98795.88
2023-01-23T15:31:55.201Z,98802.91
2023-01-23T15:34:29.401Z,98803.88
2023-01-23T15:37:21.465Z,98807.94
2023-01-23T15:40:04.977Z,98806.06
2023-01-23T15:42:34.066Z,98808.88
2023-01-23T15:45:01.743Z,98812.31
2023-01-23T15:47:30.400Z,98811.16
2023-01-23T15:50:01.497Z,98816.13
2023-01-23T15:52:48.668Z,98814.91
2023-01-23T15:55:15.601Z,98814.25
2023-01-23T15:57:43.233Z,98811.56
2023-01-23T16:00:18.611Z,98810.00
2023-01-23T16:02:55.510Z,98815.09
2023-01-23T16:05:25.133Z,98807.84
2023-01-23T16:07:53.338Z,98816.38
2023-01-23T16:10:25.844Z,98808.97
2023-01-23T16:12:53.755Z,98827.16
2023-01-23T16:15:23.732Z,98821.56
2023-01-23T16:17:51.237Z,98824.44
2023-01-23T16:20:20.450Z,98831.34
2023-01-23T16:22:51.413Z,98824.19
2023-01-23T16:25:43.711Z,98831.53
2023-01-23T16:28:20.805Z,98825.22
2023-01-23T16:30:48.210Z,98830.41
2023-01-23T16:33:14.947Z,98820.56
2023-01-23T16:35:41.858Z,98815.63
2023-01-23T16:38:19.694Z,98824.19
2023-01-23T16:40:46.295Z,98821.38
2023-01-23T16:43:12.878Z,98828.34
2023-01-23T16:45:39.562Z,98826.31
2023-01-23T16:48:09.171Z,98829.56
2023-01-23T16:50:41.366Z,98837.72
2023-01-23T16:53:27.823Z,98836.25
2023-01-23T16:55:56.923Z,98838.22
2023-01-23T16:58:34.034Z,98835.50
2023-01-23T17:01:03.726Z,98848.44
2023-01-23T17:03:33.806Z,98846.94
2023-01-23T17:06:00.770Z,98836.06
2023-01-23T17:08:27.770Z,98846.66
2023-01-23T17:10:58.341Z,98838.38
2023-01-23T17:13:25.621Z,98840.06
2023-01-23T17:15:55.583Z,98846.56
2023-01-23T17:18:31.125Z,98846.09
2023-01-23T17:20:58.753Z,98845.72
2023-01-23T17:23:25.754Z,98846.41
2023-01-23T17:26:00.798Z,98848.91
2023-01-23T17:28:28.683Z,98846.94
2023-01-23T17:30:57.894Z,98849.66
2023-01-23T17:33:28.330Z,98848.59
2023-01-23T17:35:54.968Z,98841.56
2023-01-23T17:38:26.877Z,98845.84
2023-01-23T17:40:53.788Z,98845.53
2023-01-23T17:43:21.396Z,98838.38
2023-01-23T17:45:51.367Z,98842.38
2023-01-23T17:48:25.092Z,98842.56
2023-01-23T17:50:51.971Z,98842.38
2023-01-23T17:53:19.468Z,98848.31
2023-01-23T17:55:49.339Z,98845.19
2023-01-23T17:58:16.218Z,98846.28
2023-01-23T18:00:44.663Z,98839.13
2023-01-23T18:03:17.962Z,98841.00
2023-01-23T18:05:44.561Z,98845.63
2023-01-23T18:08:15.956Z,98849.47
2023-01-23T18:10:48.151Z,98845.91
2023-01-23T18:13:28.157Z,98849.28
2023-01-23T18:16:25.581Z,98845.91
2023-01-23T18:19:14.992Z,98844.16
2023-01-23T18:21:42.097Z,98853.53
2023-01-23T18:24:32.604Z,98856.81
2023-01-23T18:27:04.284Z,98866.25
2023-01-23T18:30:13.693Z,98854.66
2023-01-23T18:33:05.787Z,98860.78
2023-01-23T18:36:09.980Z,98857.63
2023-01-23T18:39:03.677Z,98860.78
2023-01-23T18:41:30.564Z,98859.28
2023-01-23T18:44:27.471Z,98867.66
2023-01-23T18:46:54.533Z,98859.88
2023-01-23T18:49:32.459Z,98874.44
2023-01-23T18:52:09.112Z,98866.06
2023-01-23T18:54:45.346Z,98864.84
2023-01-23T18:58:08.993Z,98868.19
2023-01-23T19:00:53.729Z,98856.75
2023-01-23T19:03:36.279Z,98860.50
2023-01-23T19:06:12.919Z,98861.97
2023-01-23T19:08:40.800Z,98852.03
2023-01-23T19:11:24.344Z,98859.28
2023-01-23T19:14:17.470Z,98861.78
2023-01-23T19:17:02.354Z,98857.72
2023-01-23T19:19:38.299Z,98864.84
2023-01-23T19:22:11.745Z,98851.31
2023-01-23T19:24:38.815Z,98853.72
2023-01-23T19:27:17.050Z,98866.44
2023-01-23T19:29:43.994Z,98853.44
2023-01-23T19:32:11.253Z,98855.03
2023-01-23T19:34:38.151Z,98864.78
2023-01-23T19:37:04.898Z,98864.47
2023-01-23T19:39:31.490Z,98852.59
2023-01-23T19:41:59.437Z,98853.81
2023-01-23T19:44:28.855Z,98855.22
2023-01-23T19:46:55.635Z,98861.22
2023-01-23T19:49:22.343Z,98869.97
2023-01-23T19:51:48.969Z,98862.44
2023-01-23T19:54:16.295Z,98853.53
2023-01-23T19:56:43.020Z,98846.84
2023-01-23T19:59:09.824Z,98853.25
2023-01-23T20:01:48.508Z,98868.66
2023-01-23T20:04:20.816Z,98874.31
2023-01-23T20:06:54.152Z,98887.34
2023-01-23T20:09:22.149Z,98893.47
2023-01-23T20:11:48.921Z,98879.34
2023-01-23T20:14:15.805Z,98890.78
2023-01-23T20:16:43.308Z,98893.00
2023-01-23T20:19:14.764Z,98890.22
2023-01-23T20:21:41.565Z,98897.28
2023-01-23T20:24:08.594Z,98894.03
2023-01-23T20:26:35.836Z,98892.53
2023-01-23T20:29:03.908Z,98898.31
2023-01-23T20:31:31.126Z,98906.00
2023-01-23T20:33:58.042Z,98906.09
2023-01-23T20:36:24.734Z,98910.44
2023-01-23T20:38:51.376Z,98900.72
2023-01-23T20:41:19.399Z,98896.25
2023-01-23T20:43:46.777Z,98886.31
2023-01-23T20:46:15.199Z,98911.84
2023-01-23T20:48:44.254Z,98899.03
2023-01-23T20:51:12.480Z,98904.41
2023-01-23T20:53:40.051Z,98906.75
2023-01-23T20:56:29.724Z,98904.50
2023-01-23T20:59:15.616Z,98901.63
2023-01-23T21:02:02.147Z,98912.13
2023-01-23T21:04:31.840Z,98901.38
2023-01-23T21:06:59.628Z,98909.44
2023-01-23T21:09:26.737Z,98909.44
2023-01-23T21:11:54.283Z,98912.69
2023-01-23T21:14:22.360Z,98906.56
2023-01-23T21:16:49.266Z,98918.63
2023-01-23T21:19:16.172Z,98912.41
2023-01-23T21:21:43.345Z,98918.53
2023-01-23T21:24:10.303Z,98922.91
2023-01-23T21:26:37.369Z,98913.72
2023-01-23T21:29:04.693Z,98923.81
2023-01-23T21:31:33.770Z,98923.09
2023-01-23T21:34:08.067Z,98926.97
2023-01-23T21:36:35.760Z,98925.31
2023-01-23T21:39:02.836Z,98935.03
2023-01-23T21:41:29.589Z,98940.53
2023-01-23T21:43:56.224Z,98934.97
2023-01-23T21:46:23.276Z,98940.06
2023-01-23T21:48:50.055Z,98939.53
2023-01-23T21:51:20.002Z,98932.22
2023-01-23T21:53:48.422Z,98940.13
2023-01-23T21:56:17.069Z,98938.91
2023-01-23T21:58:44.098Z,98942.13
2023-01-23T22:01:39.583Z,98940.19
2023-01-23T22:04:22.527Z,98944.34
2023-01-23T22:06:54.204Z,98941.03
2023-01-23T22:09:22.220Z,98945.28
2023-01-23T22:11:49.179Z,98950.03
2023-01-23T22:14:16.882Z,98941.66
2023-01-23T22:16:51.350Z,98950.06
2023-01-23T22:19:24.184Z,98951.63
2023-01-23T22:21:51.432Z,98947.53
2023-01-23T22:24:18.334Z,98950.41
2023-01-23T22:26:45.004Z,98951.44
2023-01-23T22:29:13.190Z,98951.91
2023-01-23T22:31:39.873Z,98950.72
2023-01-23T22:34:06.804Z,98951.16
2023-01-23T22:36:33.426Z,98959.06
2023-01-23T22:39:00.040Z,98961.56
2023-01-23T22:41:26.712Z,98963.34
2023-01-23T22:43:54.724Z,98969.19
2023-01-23T22:46:22.352Z,98965.31
2023-01-23T22:48:49.316Z,98969.94
2023-01-23T22:51:24.209Z,98971.25
2023-01-23T22:53:51.683Z,98960.72
2023-01-23T22:56:18.345Z,98970.03
2023-01-23T22:58:49.109Z,98970.22
2023-01-23T23:01:16.575Z,98968.06
2023-01-23T23:03:43.568Z,98958.81
2023-01-23T23:06:13.473Z,98963.53
2023-01-23T23:08:40.571Z,98956.13
2023-01-23T23:11:10.379Z,98964.94
2023-01-23T23:13:38.708Z,98970.16
2023-01-23T23:16:07.920Z,98974.88
2023-01-23T23:18:36.179Z,98973.19
2023-01-23T23:21:10.934Z,98965.38
2023-01-23T23:23:38.041Z,98971.34
2023-01-23T23:26:05.818Z,98962.06
2023-01-23T23:28:33.391Z,98960.84
2023-01-23T23:31:00.285Z,98966.31
2023-01-23T23:33:26.957Z,98962.97
2023-01-23T23:35:53.590Z,98964.84
2023-01-23T23:38:20.738Z,98957.41
2023-01-23T23:41:04.696Z,98962.25
2023-01-23T23:43:31.787Z,98964.28
2023-01-23T23:46:01.378Z,98963.44
2023-01-23T23:48:29.347Z,98962.31
2023-01-23T23:50:56.307Z,98959.25
2023-01-23T23:53:23.152Z,98961.94
2023-01-23T23:55:49.828Z,98967.09
2023-01-23T23:58:16.945Z,98959.19
